createdAt,value
2023-02-22T00:02:13.145Z,6.70
2023-02-22T00:04:41.347Z,6.70
2023-02-22T00:07:09.789Z,6.80
2023-02-22T00:09:39.289Z,6.70
2023-02-22T00:12:08.720Z,6.70
2023-02-22T00:14:36.708Z,6.70
2023-02-22T00:17:04.725Z,6.60
2023-02-22T00:19:32.980Z,6.70
2023-02-22T00:22:01.235Z,6.60
2023-02-22T00:24:29.542Z,6.60
2023-02-22T00:26:59.117Z,6.60
2023-02-22T00:29:28.663Z,6.60
2023-02-22T00:31:56.669Z,6.60
2023-02-22T00:34:25.358Z,6.60
2023-02-22T00:36:53.374Z,6.60
2023-02-22T00:39:21.532Z,6.50
2023-02-22T00:41:49.749Z,6.60
2023-02-22T00:44:18.950Z,6.60
2023-02-22T00:46:49.935Z,6.60
2023-02-22T00:49:17.952Z,6.50
2023-02-22T00:51:46.434Z,6.50
2023-02-22T00:54:14.543Z,6.50
2023-02-22T00:56:42.333Z,6.50
2023-02-22T00:59:10.152Z,6.50
2023-02-22T01:01:39.408Z,6.40
2023-02-22T01:04:07.260Z,6.40
2023-02-22T01:06:36.644Z,6.30
2023-02-22T01:09:07.811Z,6.30
2023-02-22T01:11:35.849Z,6.20
2023-02-22T01:14:03.906Z,6.00
2023-02-22T01:16:31.896Z,5.90
2023-02-22T01:19:01.459Z,5.80
2023-02-22T01:21:29.404Z,5.70
2023-02-22T01:23:57.329Z,5.50
2023-02-22T01:26:25.274Z,5.40
2023-02-22T01:28:53.208Z,5.30
2023-02-22T01:31:21.370Z,5.20
2023-02-22T01:33:50.849Z,5.20
2023-02-22T01:36:20.157Z,5.10
2023-02-22T01:38:48.050Z,5.00
2023-02-22T01:41:18.761Z,4.90
2023-02-22T01:43:46.875Z,4.80
2023-02-22T01:46:26.374Z,4.70
2023-02-22T01:48:58.587Z,4.60
2023-02-22T01:51:31.790Z,4.60
2023-02-22T01:54:04.622Z,4.50
2023-02-22T01:56:35.602Z,4.40
2023-02-22T01:59:06.849Z,4.30
2023-02-22T02:01:36.226Z,4.30
2023-02-22T02:04:07.801Z,4.20
2023-02-22T02:06:38.431Z,4.20
2023-02-22T02:09:13.135Z,4.20
2023-02-22T02:11:42.650Z,4.20
2023-02-22T02:14:11.610Z,4.20
2023-02-22T02:16:42.993Z,4.30
2023-02-22T02:19:17.333Z,4.30
2023-02-22T02:22:29.589Z,4.40
2023-02-22T02:25:21.155Z,4.40
2023-02-22T02:28:06.448Z,4.50
2023-02-22T02:31:03.447Z,4.50
2023-02-22T02:33:36.003Z,4.60
2023-02-22T02:36:09.573Z,4.60
2023-02-22T02:38:46.361Z,4.70
2023-02-22T02:41:19.506Z,4.70
2023-02-22T02:43:52.923Z,4.70
2023-02-22T02:46:26.135Z,4.70
2023-02-22T02:48:58.731Z,4.80
2023-02-22T02:51:30.557Z,4.80
2023-02-22T02:53:59.269Z,4.80
2023-02-22T02:56:31.029Z,4.80
2023-02-22T02:58:59.148Z,4.80
2023-02-22T03:01:46.334Z,4.90
2023-02-22T03:04:35.356Z,4.90
2023-02-22T03:07:21.647Z,4.90
2023-02-22T03:10:01.293Z,4.90
2023-02-22T03:12:39.937Z,5.00
2023-02-22T03:15:22.249Z,5.00
2023-02-22T03:17:56.232Z,5.00
2023-02-22T03:20:31.897Z,5.00
2023-02-22T03:23:05.937Z,5.00
2023-02-22T03:25:39.657Z,5.00
2023-02-22T03:28:13.051Z,5.10
2023-02-22T03:30:46.432Z,5.00
2023-02-22T03:33:20.438Z,5.10
2023-02-22T03:35:56.788Z,5.10
2023-02-22T03:38:37.565Z,5.10
2023-02-22T03:41:07.712Z,5.10
2023-02-22T03:43:39.852Z,5.10
2023-02-22T03:46:10.204Z,5.10
2023-02-22T03:48:45.165Z,5.10
2023-02-22T03:51:17.053Z,5.20
2023-02-22T03:53:45.851Z,5.10
2023-02-22T03:56:20.248Z,5.20
2023-02-22T03:58:50.361Z,5.20
2023-02-22T04:01:19.930Z,5.20
2023-02-22T04:03:48.087Z,5.20
2023-02-22T04:06:17.459Z,5.20
2023-02-22T04:08:45.408Z,5.30
2023-02-22T04:11:13.327Z,5.20
2023-02-22T04:13:41.298Z,5.30
2023-02-22T04:16:09.682Z,5.30
2023-02-22T04:18:37.702Z,5.30
2023-02-22T04:21:06.191Z,5.30
2023-02-22T04:23:35.971Z,5.30
2023-02-22T04:26:04.676Z,5.30
2023-02-22T04:28:32.963Z,5.30
2023-02-22T04:31:01.023Z,5.30
2023-02-22T04:33:28.975Z,5.40
2023-02-22T04:35:57.820Z,5.40
2023-02-22T04:38:26.044Z,5.40
2023-02-22T04:40:56.059Z,5.40
2023-02-22T04:43:24.136Z,5.40
2023-02-22T04:45:52.492Z,5.40
2023-02-22T04:48:20.806Z,5.40
2023-02-22T04:50:48.895Z,5.40
2023-02-22T04:53:16.833Z,5.40
2023-02-22T04:55:48.083Z,5.50
2023-02-22T04:58:17.361Z,5.40
2023-02-22T05:00:45.596Z,5.50
2023-02-22T05:03:13.637Z,5.50
2023-02-22T05:05:41.586Z,5.50
2023-02-22T05:08:09.683Z,5.50
2023-02-22T05:10:37.681Z,5.50
2023-02-22T05:13:06.502Z,5.50
2023-02-22T05:15:35.829Z,5.50
2023-02-22T05:18:03.998Z,5.40
2023-02-22T05:20:34.526Z,5.40
2023-02-22T05:23:03.771Z,5.40
2023-02-22T05:25:31.763Z,5.40
2023-02-22T05:28:01.545Z,5.50
2023-02-22T05:30:31.825Z,5.50
2023-02-22T05:33:01.318Z,5.50
2023-02-22T05:35:30.119Z,5.50
2023-02-22T05:37:59.784Z,5.50
2023-02-22T05:40:28.648Z,5.50
2023-02-22T05:42:58.140Z,5.50
2023-02-22T05:45:28.121Z,5.50
2023-02-22T05:47:56.527Z,5.50
2023-02-22T05:50:26.955Z,5.50
2023-02-22T05:52:55.817Z,5.50
2023-02-22T05:55:24.993Z,5.50
2023-02-22T05:57:53.774Z,5.50
2023-02-22T06:00:24.380Z,5.50
2023-02-22T06:02:56.842Z,5.60
2023-02-22T06:05:26.851Z,5.50
2023-02-22T06:07:55.066Z,5.60
2023-02-22T06:10:24.014Z,5.60
2023-02-22T06:12:52.974Z,5.60
2023-02-22T06:15:23.145Z,5.60
2023-02-22T06:17:51.661Z,5.60
2023-02-22T06:20:22.671Z,5.60
2023-02-22T06:22:53.084Z,5.60
2023-02-22T06:25:24.311Z,5.60
2023-02-22T06:27:52.634Z,5.60
2023-02-22T06:30:23.018Z,5.70
2023-02-22T06:32:51.170Z,5.70
2023-02-22T06:35:19.662Z,5.70
2023-02-22T06:37:47.898Z,5.70
2023-02-22T06:40:17.742Z,5.80
2023-02-22T06:42:48.368Z,5.80
2023-02-22T06:45:18.388Z,5.70
2023-02-22T06:47:46.569Z,5.90
2023-02-22T06:50:23.721Z,5.80
2023-02-22T06:52:52.293Z,6.00
2023-02-22T06:55:24.296Z,6.10
2023-02-22T06:57:53.043Z,6.00
2023-02-22T07:00:23.348Z,6.00
2023-02-22T07:02:51.469Z,6.10
2023-02-22T07:05:21.376Z,6.10
2023-02-22T07:07:51.030Z,6.20
2023-02-22T07:10:22.664Z,6.10
2023-02-22T07:12:52.614Z,6.30
2023-02-22T07:15:22.581Z,6.30
2023-02-22T07:17:50.774Z,6.30
2023-02-22T07:20:20.833Z,6.30
2023-02-22T07:22:48.960Z,6.40
2023-02-22T07:25:17.240Z,6.40
2023-02-22T07:27:46.948Z,6.50
2023-02-22T07:30:20.013Z,6.50
2023-02-22T07:32:48.610Z,6.40
2023-02-22T07:35:18.729Z,6.60
2023-02-22T07:37:48.272Z,6.60
2023-02-22T07:40:17.428Z,6.70
2023-02-22T07:42:57.533Z,6.70
2023-02-22T07:45:27.193Z,6.70
2023-02-22T07:47:55.799Z,6.80
2023-02-22T07:50:25.555Z,6.80
2023-02-22T07:52:55.481Z,6.90
2023-02-22T07:55:26.052Z,6.80
2023-02-22T07:57:57.538Z,6.90
2023-02-22T08:00:27.712Z,7.00
2023-02-22T08:02:56.681Z,6.90
2023-02-22T08:05:26.949Z,7.00
2023-02-22T08:07:55.437Z,7.00
2023-02-22T08:10:25.151Z,7.10
2023-02-22T08:12:54.216Z,7.10
2023-02-22T08:15:26.070Z,7.10
2023-02-22T08:17:54.558Z,7.20
2023-02-22T08:20:23.378Z,7.30
2023-02-22T08:22:51.750Z,7.30
2023-02-22T08:25:22.122Z,7.40
2023-02-22T08:27:50.592Z,7.60
2023-02-22T08:30:22.444Z,7.50
2023-02-22T08:32:52.830Z,7.60
2023-02-22T08:35:22.493Z,7.60
2023-02-22T08:37:52.388Z,7.60
2023-02-22T08:40:23.247Z,7.70
2023-02-22T08:42:51.371Z,7.70
2023-02-22T08:45:19.891Z,7.90
2023-02-22T08:47:50.847Z,7.70
2023-02-22T08:50:24.606Z,7.80
2023-02-22T08:52:53.945Z,7.90
2023-02-22T08:55:22.724Z,7.90
2023-02-22T08:57:50.927Z,7.90
2023-02-22T09:00:20.126Z,8.00
2023-02-22T09:02:48.858Z,8.00
2023-02-22T09:05:17.487Z,8.00
2023-02-22T09:07:47.710Z,8.20
2023-02-22T09:10:18.002Z,8.10
2023-02-22T09:12:46.260Z,8.20
2023-02-22T09:15:16.512Z,8.20
2023-02-22T09:17:45.006Z,8.30
2023-02-22T09:20:15.148Z,8.30
2023-02-22T09:22:48.199Z,8.40
2023-02-22T09:25:17.761Z,8.40
2023-02-22T09:27:48.705Z,8.40
2023-02-22T09:30:25.051Z,8.40
2023-02-22T09:32:55.324Z,8.50
2023-02-22T09:35:27.737Z,8.50
2023-02-22T09:38:01.949Z,8.50
2023-02-22T09:40:33.145Z,8.40
2023-02-22T09:43:16.894Z,8.50
2023-02-22T09:45:56.098Z,8.50
2023-02-22T09:48:25.376Z,8.70
2023-02-22T09:50:58.758Z,8.80
2023-02-22T09:53:36.122Z,8.80
2023-02-22T09:56:11.051Z,9.00
2023-02-22T09:58:43.121Z,9.10
2023-02-22T10:01:24.052Z,9.00
2023-02-22T10:03:57.457Z,9.10
2023-02-22T10:06:26.224Z,9.10
2023-02-22T10:09:00.708Z,9.10
2023-02-22T10:11:52.384Z,9.20
2023-02-22T10:14:56.758Z,9.30
2023-02-22T10:17:34.657Z,9.40
2023-02-22T10:20:21.902Z,9.60
2023-02-22T10:23:00.902Z,9.60
2023-02-22T10:25:35.764Z,9.70
2023-02-22T10:28:12.491Z,9.90
2023-02-22T10:30:49.374Z,10.00
2023-02-22T10:33:21.975Z,10.00
2023-02-22T10:35:52.792Z,10.00
2023-02-22T10:38:23.625Z,10.00
2023-02-22T10:40:57.914Z,10.10
2023-02-22T10:43:26.724Z,10.10
2023-02-22T10:45:57.866Z,10.10
2023-02-22T10:48:30.371Z,9.90
2023-02-22T10:51:02.103Z,9.90
2023-02-22T10:53:31.788Z,10.10
2023-02-22T10:56:31.326Z,10.00
2023-02-22T10:59:02.583Z,10.00
2023-02-22T11:01:38.604Z,10.00
2023-02-22T11:04:14.675Z,10.00
2023-02-22T11:06:44.474Z,10.00
2023-02-22T11:09:15.364Z,10.10
2023-02-22T11:11:46.995Z,10.10
2023-02-22T11:14:27.037Z,10.00
2023-02-22T11:16:57.043Z,10.10
2023-02-22T11:19:27.550Z,10.10
2023-02-22T11:22:41.385Z,10.10
2023-02-22T11:25:09.211Z,10.10
2023-02-22T11:27:43.900Z,10.20
2023-02-22T11:30:21.960Z,10.20
2023-02-22T11:32:54.722Z,10.00
2023-02-22T11:35:35.514Z,10.10
2023-02-22T11:38:28.445Z,10.10
2023-02-22T11:41:18.007Z,10.20
2023-02-22T11:43:49.373Z,10.20
2023-02-22T11:46:20.725Z,10.30
2023-02-22T11:49:00.356Z,10.30
2023-02-22T11:51:45.152Z,10.40
2023-02-22T11:54:33.684Z,10.40
2023-02-22T11:57:16.547Z,10.40
2023-02-22T11:59:59.431Z,10.40
2023-02-22T12:02:56.741Z,10.40
2023-02-22T12:05:37.311Z,10.40
2023-02-22T12:08:21.974Z,10.40
2023-02-22T12:11:02.582Z,10.40
2023-02-22T12:13:48.081Z,10.50
2023-02-22T12:16:28.413Z,10.50
2023-02-22T12:19:09.960Z,10.40
2023-02-22T12:21:42.507Z,10.60
2023-02-22T12:24:16.452Z,10.40
2023-02-22T12:26:49.530Z,10.50
2023-02-22T12:29:29.828Z,10.60
2023-02-22T12:32:05.808Z,10.50
2023-02-22T12:34:38.644Z,10.50
2023-02-22T12:37:14.915Z,10.60
2023-02-22T12:39:54.113Z,10.50
2023-02-22T12:42:29.307Z,10.50
2023-02-22T12:45:04.558Z,10.60
2023-02-22T12:47:41.228Z,10.70
2023-02-22T12:50:19.209Z,10.80
2023-02-22T12:52:52.926Z,10.80
2023-02-22T12:55:25.251Z,10.80
2023-02-22T12:57:58.659Z,10.80
2023-02-22T13:00:31.060Z,10.90
2023-02-22T13:03:04.481Z,10.80
2023-02-22T13:05:41.053Z,10.80
2023-02-22T13:08:25.484Z,10.80
2023-02-22T13:11:10.243Z,10.90
2023-02-22T13:13:44.606Z,10.90
2023-02-22T13:16:32.291Z,10.80
2023-02-22T13:19:05.930Z,10.70
2023-02-22T13:21:52.622Z,10.70
2023-02-22T13:24:27.223Z,10.70
2023-02-22T13:27:00.038Z,10.70
2023-02-22T13:29:33.029Z,10.70
2023-02-22T13:32:15.611Z,10.90
2023-02-22T13:35:03.134Z,10.80
2023-02-22T13:37:51.098Z,10.60
2023-02-22T13:40:48.049Z,10.40
2023-02-22T13:43:28.942Z,10.50
2023-02-22T13:46:23.690Z,10.70
2023-02-22T13:49:12.257Z,10.80
2023-02-22T13:51:52.608Z,10.80
2023-02-22T13:54:27.909Z,10.90
2023-02-22T13:56:58.718Z,11.00
2023-02-22T13:59:35.092Z,11.00
2023-02-22T14:02:06.926Z,11.10
2023-02-22T14:04:42.231Z,11.10
2023-02-22T14:07:56.219Z,11.10
2023-02-22T14:10:52.862Z,11.00
2023-02-22T14:13:23.287Z,11.00
2023-02-22T14:16:21.435Z,10.90
2023-02-22T14:18:52.013Z,10.80
2023-02-22T14:21:21.358Z,10.80
2023-02-22T14:23:51.677Z,10.90
2023-02-22T14:26:27.692Z,10.90
2023-02-22T14:28:58.814Z,10.90
2023-02-22T14:31:36.596Z,10.90
2023-02-22T14:34:13.216Z,10.70
2023-02-22T14:36:47.775Z,10.70
2023-02-22T14:39:23.719Z,10.80
2023-02-22T14:42:01.513Z,10.60
2023-02-22T14:44:34.643Z,10.50
2023-02-22T14:47:06.334Z,10.50
2023-02-22T14:49:38.186Z,10.50
2023-02-22T14:52:15.988Z,10.50
2023-02-22T14:54:59.655Z,10.40
2023-02-22T14:57:38.978Z,10.20
2023-02-22T15:00:20.005Z,10.00
2023-02-22T15:02:49.918Z,10.00
2023-02-22T15:05:20.996Z,9.90
2023-02-22T15:07:54.990Z,9.90
2023-02-22T15:10:26.880Z,9.70
2023-02-22T15:13:09.049Z,9.60
2023-02-22T15:15:39.482Z,9.60
2023-02-22T15:18:18.644Z,9.60
2023-02-22T15:20:48.417Z,9.50
2023-02-22T15:23:17.074Z,9.40
2023-02-22T15:25:50.412Z,9.30
2023-02-22T15:28:20.125Z,9.20
2023-02-22T15:30:48.057Z,9.30
2023-02-22T15:33:18.212Z,9.20
2023-02-22T15:35:46.288Z,9.10
2023-02-22T15:38:28.907Z,9.00
2023-02-22T15:41:05.600Z,8.90
2023-02-22T15:43:35.255Z,8.90
2023-02-22T15:46:03.432Z,8.80
2023-02-22T15:48:33.190Z,8.80
2023-02-22T15:51:11.456Z,8.80
2023-02-22T15:53:45.173Z,8.80
2023-02-22T15:56:17.651Z,8.70
2023-02-22T15:58:48.893Z,8.60
2023-02-22T16:01:20.369Z,8.50
2023-02-22T16:03:51.808Z,8.50
2023-02-22T16:06:29.734Z,8.40
2023-02-22T16:09:00.571Z,8.40
2023-02-22T16:11:32.490Z,8.30
2023-02-22T16:14:04.820Z,8.20
2023-02-22T16:16:35.018Z,8.10
2023-02-22T16:19:32.868Z,8.10
2023-02-22T16:22:04.357Z,8.00
2023-02-22T16:24:34.411Z,7.80
2023-02-22T16:27:24.959Z,7.80
2023-02-22T16:30:18.635Z,7.90
2023-02-22T16:32:50.953Z,7.70
2023-02-22T16:35:19.152Z,7.60
2023-02-22T16:37:49.195Z,7.50
2023-02-22T16:40:23.509Z,7.50
2023-02-22T16:42:54.183Z,7.40
2023-02-22T16:45:23.633Z,7.40
2023-02-22T16:47:53.921Z,7.40
2023-02-22T16:50:22.234Z,7.40
2023-02-22T16:52:50.571Z,7.40
2023-02-22T16:55:20.484Z,7.30
2023-02-22T16:57:50.836Z,7.30
2023-02-22T17:00:31.100Z,7.20
2023-02-22T17:03:03.984Z,7.20
2023-02-22T17:05:32.553Z,7.10
2023-02-22T17:08:00.710Z,7.00
2023-02-22T17:10:29.051Z,7.10
2023-02-22T17:12:57.676Z,7.00
2023-02-22T17:15:29.458Z,7.00
2023-02-22T17:17:58.065Z,7.00
2023-02-22T17:20:30.902Z,7.00
2023-02-22T17:22:59.894Z,7.00
2023-02-22T17:25:32.198Z,7.00
2023-02-22T17:28:00.357Z,6.80
2023-02-22T17:30:28.492Z,6.80
2023-02-22T17:33:03.762Z,6.80
2023-02-22T17:35:36.721Z,6.80
2023-02-22T17:38:06.435Z,6.80
2023-02-22T17:40:35.607Z,6.80
2023-02-22T17:43:03.868Z,6.80
2023-02-22T17:45:32.312Z,6.80
2023-02-22T17:48:00.369Z,6.70
2023-02-22T17:50:28.529Z,6.70
2023-02-22T17:53:00.529Z,6.70
2023-02-22T17:55:29.430Z,6.70
2023-02-22T17:57:59.213Z,6.80
2023-02-22T18:00:33.982Z,6.70
2023-02-22T18:03:04.201Z,6.60
2023-02-22T18:05:33.274Z,6.50
2023-02-22T18:08:02.672Z,6.60
2023-02-22T18:10:30.693Z,6.50
2023-02-22T18:13:02.043Z,6.40
2023-02-22T18:15:30.443Z,6.40
2023-02-22T18:17:58.697Z,6.40
2023-02-22T18:20:31.205Z,6.40
2023-02-22T18:22:59.995Z,6.40
2023-02-22T18:25:29.824Z,6.30
2023-02-22T18:27:57.797Z,6.40
2023-02-22T18:30:25.905Z,6.30
2023-02-22T18:32:54.277Z,6.20
2023-02-22T18:35:22.775Z,6.20
2023-02-22T18:40:19.059Z,6.20
2023-02-22T18:42:48.552Z,6.30
2023-02-22T18:45:17.342Z,6.30
2023-02-22T18:47:46.566Z,6.30
2023-02-22T18:50:17.345Z,6.20
2023-02-22T18:52:48.842Z,6.20
2023-02-22T18:55:21.204Z,6.10
2023-02-22T18:57:51.954Z,6.10
2023-02-22T19:00:24.447Z,6.00
2023-02-22T19:02:53.760Z,6.00
2023-02-22T19:05:22.684Z,6.10
2023-02-22T19:07:52.854Z,6.20
2023-02-22T19:10:23.116Z,6.30
2023-02-22T19:12:55.336Z,6.20
2023-02-22T19:15:24.306Z,6.20
2023-02-22T19:17:53.179Z,6.10
2023-02-22T19:20:25.539Z,6.10
2023-02-22T19:22:53.939Z,6.10
2023-02-22T19:25:22.037Z,6.00
2023-02-22T19:27:52.102Z,6.00
2023-02-22T19:30:22.151Z,6.00
2023-02-22T19:32:50.370Z,6.00
2023-02-22T19:35:26.327Z,6.00
2023-02-22T19:37:56.401Z,5.90
2023-02-22T19:40:24.670Z,5.90
2023-02-22T19:42:58.763Z,6.00
2023-02-22T19:45:28.386Z,5.90
2023-02-22T19:47:57.531Z,5.90
2023-02-22T19:50:25.783Z,5.80
2023-02-22T19:52:56.307Z,5.90
2023-02-22T19:55:25.005Z,5.90
2023-02-22T19:57:53.318Z,6.00
2023-02-22T20:00:24.893Z,6.10
2023-02-22T20:03:05.769Z,6.10
2023-02-22T20:05:37.010Z,6.10
2023-02-22T20:08:05.826Z,5.90
2023-02-22T20:10:35.069Z,5.90
2023-02-22T20:13:03.717Z,6.00
2023-02-22T20:15:32.372Z,5.90
2023-02-22T20:18:03.087Z,5.90
2023-02-22T20:20:32.113Z,5.90
2023-02-22T20:23:00.473Z,5.90
2023-02-22T20:25:28.566Z,5.80
2023-02-22T20:28:00.949Z,5.80
2023-02-22T20:30:29.015Z,5.80
2023-02-22T20:32:57.289Z,5.80
2023-02-22T20:35:28.138Z,5.80
2023-02-22T20:37:56.332Z,5.70
2023-02-22T20:40:24.871Z,5.70
2023-02-22T20:42:53.174Z,5.80
2023-02-22T20:45:21.243Z,5.70
2023-02-22T20:47:49.669Z,5.60
2023-02-22T20:50:17.805Z,5.60
2023-02-22T20:52:47.100Z,5.50
2023-02-22T20:55:15.290Z,5.50
2023-02-22T20:57:43.476Z,5.40
2023-02-22T21:00:15.018Z,5.30
2023-02-22T21:02:43.075Z,5.20
2023-02-22T21:05:11.205Z,5.10
2023-02-22T21:07:39.215Z,5.00
2023-02-22T21:10:09.367Z,5.00
2023-02-22T21:12:37.631Z,5.00
2023-02-22T21:15:07.062Z,4.90
2023-02-22T21:17:39.775Z,4.90
2023-02-22T21:20:12.297Z,5.00
2023-02-22T21:22:45.269Z,5.00
2023-02-22T21:25:25.023Z,5.00
2023-02-22T21:27:54.544Z,5.00
2023-02-22T21:30:22.716Z,5.00
2023-02-22T21:32:53.967Z,5.10
2023-02-22T21:35:24.804Z,5.10
2023-02-22T21:37:53.581Z,5.10
2023-02-22T21:40:26.242Z,5.00
2023-02-22T21:42:54.319Z,5.00
2023-02-22T21:45:23.918Z,4.90
2023-02-22T21:47:54.690Z,4.90
2023-02-22T21:50:25.579Z,4.90
2023-02-22T21:52:54.092Z,4.90
2023-02-22T21:55:23.771Z,4.90
2023-02-22T21:57:51.878Z,4.90
2023-02-22T22:00:29.275Z,4.90
2023-02-22T22:03:00.131Z,4.80
2023-02-22T22:05:34.034Z,4.90
2023-02-22T22:08:05.364Z,4.80
2023-02-22T22:10:35.414Z,4.80
2023-02-22T22:13:09.174Z,4.90
2023-02-22T22:15:37.674Z,4.70
2023-02-22T22:18:06.696Z,4.80
2023-02-22T22:20:37.946Z,4.70
2023-02-22T22:23:06.758Z,4.60
2023-02-22T22:25:38.756Z,4.80
2023-02-22T22:28:07.765Z,4.90
2023-02-22T22:30:37.174Z,4.70
2023-02-22T22:33:11.567Z,4.60
2023-02-22T22:35:41.916Z,4.60
2023-02-22T22:38:10.573Z,4.60
2023-02-22T22:40:40.511Z,4.60
2023-02-22T22:43:08.963Z,4.60
2023-02-22T22:45:38.247Z,4.70
2023-02-22T22:48:06.545Z,4.60
2023-02-22T22:50:35.333Z,4.60
2023-02-22T22:53:03.383Z,4.50
2023-02-22T22:55:31.684Z,4.60
2023-02-22T22:58:01.405Z,4.60
2023-02-22T23:00:36.114Z,4.50
2023-02-22T23:03:05.574Z,4.40
2023-02-22T23:05:38.422Z,4.40
2023-02-22T23:08:10.797Z,4.40
2023-02-22T23:10:46.823Z,4.40
2023-02-22T23:13:16.908Z,4.30
2023-02-22T23:15:47.673Z,4.30
2023-02-22T23:18:20.449Z,4.30
2023-02-22T23:20:55.230Z,4.30
2023-02-22T23:23:27.639Z,4.30
2023-02-22T23:26:11.588Z,4.20
2023-02-22T23:28:42.517Z,4.20
2023-02-22T23:31:14.376Z,4.20
2023-02-22T23:33:43.363Z,4.20
2023-02-22T23:36:12.538Z,4.10
2023-02-22T23:38:42.356Z,4.10
2023-02-22T23:41:12.668Z,4.20
2023-02-22T23:43:42.359Z,4.10
2023-02-22T23:46:12.773Z,4.10
2023-02-22T23:48:43.154Z,4.00
2023-02-22T23:51:11.916Z,4.10
2023-02-22T23:53:45.977Z,4.10
2023-02-22T23:56:16.048Z,4.10
2023-02-22T23:58:47.158Z,4.10
